Willhite, Louisiana
Current Conditions -  °F | °C
As of 10:35 PM on Thursday 20 Nov 2014 (Local Time) from KRSN Reporting Station
Broken Clouds Broken Clouds  
Wind Chill: 59°   Ceiling: 9000
Heat Index: 59°   Visibility: 10mi
Dew Point: 53°   Wind: 3mph
Humidity: 82%   Direction: 190°S
Pressure: 30.21"   Gusts: NA
Location:  32.6533°N, 92.3683°W
Report Text: KRSN 210435Z AUTO 19003KT 10SM SCT070 BKN090 15/12 A3021 RMK AO2 T01480117
Loading
Personal Weather Stations






























Interactive Weather Map New forecast layout! Learn more

10-Day Weather Forecast

Advertisements
Track Severe Weather on mobile